Time;durP1;ratioP1;P1;durP2;ratioP2;P2;SDS_P1;SDS_P2;PMS_P1;PMS_P2;Temp;Humidity;BMP_temperature;BMP_pressure;BME280_temperature;BME280_humidity;BME280_pressure;Samples;Min_cycle;Max_cycle;Signal;HPM_P1;HPM_P2
2022/07/19 00:00:18;;;;;;;8.68;2.33;;;;;;;25.04;37.69;100828.47;5110998;28;20734;-65
2022/07/19 00:02:47;;;;;;;7.95;2.65;;;;;;;25.00;37.76;100827.25;5110468;28;20554;-64
2022/07/19 00:05:15;;;;;;;7.50;2.40;;;;;;;25.01;37.77;100831.63;5109972;28;20237;-64
2022/07/19 00:07:45;;;;;;;7.57;2.38;;;;;;;24.98;37.66;100830.19;5107384;28;20202;-64
2022/07/19 00:10:16;;;;;;;15.60;2.78;;;;;;;24.94;37.86;100836.34;5110517;28;20652;-64
2022/07/19 00:12:45;;;;;;;11.45;2.20;;;;;;;24.87;37.81;100830.19;5109908;28;20206;-65
2022/07/19 00:15:15;;;;;;;12.35;2.97;;;;;;;24.82;37.86;100833.56;5110575;28;20223;-64
2022/07/19 00:17:46;;;;;;;16.92;2.65;;;;;;;24.77;37.68;100838.88;5110515;28;20206;-65
2022/07/19 00:20:16;;;;;;;13.30;3.20;;;;;;;24.72;38.10;100830.59;5108423;28;20208;-65
2022/07/19 00:22:45;;;;;;;8.02;2.88;;;;;;;24.70;38.33;100835.44;5110118;28;20826;-65
2022/07/19 00:25:14;;;;;;;6.38;2.55;;;;;;;24.73;38.20;100832.25;5110028;28;20293;-65
2022/07/19 00:27:42;;;;;;;9.63;3.20;;;;;;;24.70;38.26;100838.16;5110286;28;20261;-64
2022/07/19 00:30:11;;;;;;;10.77;2.58;;;;;;;24.67;38.27;100838.63;5110390;28;20221;-65
2022/07/19 00:32:39;;;;;;;6.85;3.30;;;;;;;24.65;38.49;100840.72;5109793;28;20232;-66
2022/07/19 00:35:07;;;;;;;8.88;2.80;;;;;;;24.70;38.17;100843.59;5106817;28;20245;-65
2022/07/19 00:37:35;;;;;;;11.05;3.40;;;;;;;24.70;37.93;100846.28;5110649;28;20234;-65
2022/07/19 00:40:04;;;;;;;8.65;3.80;;;;;;;24.63;38.20;100850.97;5109999;28;20289;-65
2022/07/19 00:42:33;;;;;;;17.65;5.55;;;;;;;24.53;38.53;100853.44;5096064;28;20238;-65
2022/07/19 00:45:01;;;;;;;20.38;8.85;;;;;;;24.47;38.12;100854.34;5090297;28;20321;-65
2022/07/19 00:47:28;;;;;;;14.60;7.00;;;;;;;24.48;38.24;100854.09;5096336;28;20226;-65
2022/07/19 00:49:56;;;;;;;5.95;3.50;;;;;;;24.50;38.67;100853.88;5108339;28;20644;-65
2022/07/19 00:52:27;;;;;;;8.80;3.72;;;;;;;24.53;39.15;100853.44;5097780;28;20293;-65
2022/07/19 00:54:55;;;;;;;10.52;3.63;;;;;;;24.48;39.52;100854.09;5110848;28;20237;-65
2022/07/19 00:57:25;;;;;;;8.63;3.60;;;;;;;24.41;39.61;100849.84;5109779;28;20321;-65
2022/07/19 00:59:54;;;;;;;6.70;3.08;;;;;;;24.35;39.63;100849.72;5097571;28;20286;-64
2022/07/19 01:02:24;;;;;;;9.82;3.20;;;;;;;24.29;39.60;100856.03;5099363;28;20234;-64
2022/07/19 01:04:52;;;;;;;7.13;3.17;;;;;;;24.24;39.73;100849.66;5113539;28;20292;-65
2022/07/19 01:07:24;;;;;;;9.88;3.30;;;;;;;24.18;39.56;100851.38;5113819;28;20245;-64
2022/07/19 01:09:52;;;;;;;9.68;2.80;;;;;;;24.22;39.65;100847.16;5113520;28;20409;-65
2022/07/19 01:12:22;;;;;;;16.98;3.38;;;;;;;24.24;39.29;100853.19;5112544;28;20212;-64
2022/07/19 01:14:50;;;;;;;9.60;2.90;;;;;;;24.23;39.13;100853.41;5113776;28;20255;-64
2022/07/19 01:17:19;;;;;;;10.52;3.00;;;;;;;24.15;39.20;100851.81;5099262;28;20931;-65
2022/07/19 01:19:47;;;;;;;12.43;3.65;;;;;;;24.04;39.76;100844.44;5110892;28;20297;-64
2022/07/19 01:22:16;;;;;;;8.30;3.17;;;;;;;24.03;39.79;100837.38;5110873;28;20293;-64
2022/07/19 01:24:44;;;;;;;10.07;3.42;;;;;;;23.98;39.96;100835.38;5113726;28;20206;-64
2022/07/19 01:27:11;;;;;;;13.93;3.25;;;;;;;23.91;39.96;100836.50;5113659;28;20226;-64
2022/07/19 01:29:39;;;;;;;7.53;3.65;;;;;;;23.86;40.07;100836.34;5113537;28;20706;-64
2022/07/19 01:32:07;;;;;;;11.75;3.40;;;;;;;23.84;39.75;100828.44;5113071;28;20813;-64
2022/07/19 01:34:35;;;;;;;10.57;3.40;;;;;;;23.84;39.87;100830.31;5112135;28;20246;-65
2022/07/19 01:37:03;;;;;;;12.27;3.30;;;;;;;23.85;39.77;100829.25;5107853;28;20237;-65
2022/07/19 01:39:32;;;;;;;10.95;3.08;;;;;;;23.85;40.19;100831.97;5113198;28;20202;-65
2022/07/19 01:42:00;;;;;;;14.02;3.10;;;;;;;23.81;40.02;100828.91;5113134;28;20214;-65
2022/07/19 01:44:28;;;;;;;9.77;2.90;;;;;;;23.79;40.31;100836.41;5112844;28;20714;-64
2022/07/19 01:46:56;;;;;;;9.23;3.42;;;;;;;23.72;40.25;100838.38;5113112;28;20313;-64
2022/07/19 01:49:24;;;;;;;6.17;2.90;;;;;;;23.72;40.20;100835.69;5112597;28;20602;-64
2022/07/19 01:51:51;;;;;;;13.00;3.45;;;;;;;23.71;40.11;100834.00;5110066;28;20209;-64
2022/07/19 01:54:19;;;;;;;9.38;3.50;;;;;;;23.75;40.15;100834.41;5111918;28;20210;-64
2022/07/19 01:56:48;;;;;;;8.90;3.73;;;;;;;23.75;40.47;100829.00;5107674;28;20274;-64
2022/07/19 01:59:16;;;;;;;8.73;3.40;;;;;;;23.74;40.43;100824.63;5104904;28;20249;-64
2022/07/19 02:01:44;;;;;;;9.10;3.63;;;;;;;23.71;40.64;100825.91;5111912;28;20245;-64
2022/07/19 02:04:12;;;;;;;5.30;3.22;;;;;;;23.68;40.70;100817.38;5106461;28;20636;-65
2022/07/19 02:06:39;;;;;;;10.90;3.73;;;;;;;23.67;40.39;100819.25;5112669;28;20221;-65
2022/07/19 02:09:07;;;;;;;10.47;4.17;;;;;;;23.67;40.18;100813.00;5108538;28;20245;-65
2022/07/19 02:11:38;;;;;;;16.20;4.50;;;;;;;23.67;40.31;100810.31;5107628;28;20206;-63
2022/07/19 02:14:09;;;;;;;14.13;4.37;;;;;;;23.65;40.22;100812.44;5111901;28;20199;-65
2022/07/19 02:16:38;;;;;;;13.50;4.13;;;;;;;23.67;40.08;100819.25;5112638;28;20563;-65
2022/07/19 02:19:07;;;;;;;11.02;4.57;;;;;;;23.63;40.22;100818.06;5112116;28;20198;-65
2022/07/19 02:21:36;;;;;;;11.97;4.13;;;;;;;23.65;40.21;100812.44;5112058;28;20206;-65
2022/07/19 02:24:05;;;;;;;16.63;4.53;;;;;;;23.67;40.21;100813.84;5111788;28;20785;-65
2022/07/19 02:26:33;;;;;;;9.43;5.00;;;;;;;23.63;40.13;100816.19;5112551;28;20690;-64
2022/07/19 02:29:07;;;;;;;7.50;4.73;;;;;;;23.63;40.25;100810.78;5112288;28;20206;-64
2022/07/19 02:31:35;;;;;;;14.17;5.10;;;;;;;23.65;39.86;100817.84;5110222;28;20209;-64
2022/07/19 02:34:04;;;;;;;14.70;5.60;;;;;;;23.60;39.54;100815.81;5111081;28;20287;-64
2022/07/19 02:36:31;;;;;;;12.67;5.73;;;;;;;23.47;40.27;100807.81;5112185;28;20582;-64
2022/07/19 02:38:59;;;;;;;12.90;4.67;;;;;;;23.39;40.83;100811.66;5111883;28;20661;-64
2022/07/19 02:41:27;;;;;;;11.77;5.07;;;;;;;23.37;40.92;100813.72;5111892;28;20217;-64
2022/07/19 02:43:55;;;;;;;11.83;5.47;;;;;;;23.41;40.59;100814.94;5111067;28;20206;-64
2022/07/19 02:46:24;;;;;;;12.17;5.70;;;;;;;23.40;40.44;100815.97;5112071;28;20233;-65
2022/07/19 02:48:52;;;;;;;13.57;5.40;;;;;;;23.39;40.40;100808.94;5111391;28;20644;-64
2022/07/19 02:51:20;;;;;;;12.93;5.73;;;;;;;23.38;40.81;100811.84;5097338;28;20266;-64
2022/07/19 02:53:48;;;;;;;12.00;4.70;;;;;;;23.37;41.46;100811.03;5111058;28;20643;-64
2022/07/19 02:56:15;;;;;;;10.00;4.23;;;;;;;23.36;42.08;100811.25;5111580;28;20206;-65
2022/07/19 02:58:43;;;;;;;10.20;4.73;;;;;;;23.36;42.20;100811.25;5111430;28;20269;-64
2022/07/19 03:01:11;;;;;;;10.83;4.73;;;;;;;23.25;41.98;100812.81;5111992;28;20695;-65
2022/07/19 03:03:47;;;;;;;9.07;3.87;;;;;;;23.19;42.19;100821.81;5110849;28;20233;-65
2022/07/19 03:06:17;;;;;;;9.00;4.30;;;;;;;23.11;42.50;100824.81;5111565;28;20209;-65
2022/07/19 03:08:45;;;;;;;6.83;3.83;;;;;;;23.11;42.26;100822.09;5110824;28;20253;-65
2022/07/19 03:11:13;;;;;;;11.87;4.80;;;;;;;23.12;41.80;100819.19;5111696;28;20293;-65
2022/07/19 03:13:41;;;;;;;15.60;4.63;;;;;;;23.11;41.46;100828.34;5110620;28;20216;-65
2022/07/19 03:16:10;;;;;;;11.47;4.23;;;;;;;23.11;41.95;100820.22;5111181;28;20202;-65
2022/07/19 03:18:38;;;;;;;8.47;4.57;;;;;;;23.11;42.07;100830.22;5111464;28;20198;-65
2022/07/19 03:21:07;;;;;;;15.47;4.30;;;;;;;23.12;42.37;100832.72;5099986;28;20230;-64
2022/07/19 03:23:36;;;;;;;9.87;4.27;;;;;;;23.10;42.50;100831.25;5110081;28;20293;-64
2022/07/19 03:26:04;;;;;;;11.37;4.20;;;;;;;23.08;42.77;100830.66;5111483;28;20284;-64
2022/07/19 03:28:33;;;;;;;11.30;4.60;;;;;;;23.02;42.80;100826.97;5108384;28;20266;-65
2022/07/19 03:31:00;;;;;;;9.03;3.73;;;;;;;23.01;43.36;100832.59;5110544;28;20627;-64
2022/07/19 03:33:28;;;;;;;14.73;4.13;;;;;;;22.96;43.48;100829.69;5110013;28;20222;-64
2022/07/19 03:35:56;;;;;;;9.40;4.17;;;;;;;22.92;43.38;100820.38;5110590;28;20305;-64
2022/07/19 03:38:26;;;;;;;9.47;3.80;;;;;;;22.88;43.55;100828.09;5111120;28;20300;-64
2022/07/19 03:40:53;;;;;;;14.87;3.53;;;;;;;22.74;43.71;100826.53;5111047;28;20669;-65
2022/07/19 03:43:23;;;;;;;10.30;3.87;;;;;;;22.70;43.31;100831.53;5110864;28;20210;-64
2022/07/19 03:45:51;;;;;;;11.53;4.17;;;;;;;22.60;43.80;100825.81;5110964;28;20206;-64
2022/07/19 03:48:18;;;;;;;9.40;3.80;;;;;;;22.54;44.48;100832.06;5101796;28;20258;-64
2022/07/19 03:50:46;;;;;;;11.17;4.33;;;;;;;22.52;44.41;100831.44;5098398;28;20628;-64
2022/07/19 03:53:14;;;;;;;9.80;3.67;;;;;;;22.48;44.55;100835.63;5109968;28;20220;-65
2022/07/19 03:55:43;;;;;;;14.43;3.83;;;;;;;22.45;44.13;100833.34;5110814;28;20237;-64
2022/07/19 03:58:11;;;;;;;11.47;4.03;;;;;;;22.46;44.11;100829.63;5110024;28;20232;-65
2022/07/19 04:00:39;;;;;;;11.27;4.37;;;;;;;22.44;44.14;100826.28;5110623;28;20202;-65
2022/07/19 04:03:06;;;;;;;10.90;4.63;;;;;;;22.38;44.25;100835.28;5109699;28;20210;-65
2022/07/19 04:05:35;;;;;;;9.23;4.37;;;;;;;22.35;44.21;100836.53;5110567;28;20202;-65
2022/07/19 04:08:03;;;;;;;16.47;7.00;;;;;;;22.32;43.83;100838.84;5110820;28;20582;-65
2022/07/19 04:10:31;;;;;;;17.87;8.30;;;;;;;22.32;43.66;100844.25;5107584;28;20198;-65
2022/07/19 04:13:00;;;;;;;18.80;9.07;;;;;;;22.31;43.61;100845.28;5109791;28;20301;-65
2022/07/19 04:15:28;;;;;;;23.67;10.80;;;;;;;22.37;43.76;100844.41;5109917;28;20305;-65
2022/07/19 04:17:55;;;;;;;29.33;10.63;;;;;;;22.40;43.18;100850.22;5110416;28;20269;-64
2022/07/19 04:20:23;;;;;;;37.30;14.53;;;;;;;22.42;43.25;100847.31;5099148;28;20206;-64
2022/07/19 04:22:51;;;;;;;80.03;31.87;;;;;;;22.40;43.43;100841.31;5110339;28;20551;-64
2022/07/19 04:25:18;;;;;;;169.17;73.47;;;;;;;22.42;43.47;100844.63;5106570;28;20649;-65
2022/07/19 04:27:47;;;;;;;181.60;75.20;;;;;;;22.42;43.23;100837.34;5107714;28;20206;-64
2022/07/19 04:30:16;;;;;;;134.93;54.97;;;;;;;22.44;43.04;100847.91;5109988;28;20214;-64
2022/07/19 04:32:43;;;;;;;92.80;37.20;;;;;;;22.39;43.38;100845.88;5109697;28;20309;-64
2022/07/19 04:35:11;;;;;;;57.27;24.57;;;;;;;22.41;42.75;100853.78;5112339;28;20843;-65
2022/07/19 04:37:41;;;;;;;43.97;19.03;;;;;;;22.46;42.53;100851.22;5114320;28;20228;-65
2022/07/19 04:40:09;;;;;;;34.43;15.10;;;;;;;22.49;42.52;100846.25;5106376;28;20233;-65
2022/07/19 04:42:37;;;;;;;30.20;12.80;;;;;;;22.53;42.06;100852.84;5113552;28;20293;-65
2022/07/19 04:45:06;;;;;;;31.23;13.67;;;;;;;22.57;42.08;100847.84;5114414;28;20296;-65
2022/07/19 04:47:35;;;;;;;31.70;10.30;;;;;;;22.61;42.08;100849.06;5113967;28;20638;-65
2022/07/19 04:50:03;;;;;;;20.10;8.53;;;;;;;22.63;42.37;100841.56;5108732;28;20226;-65
2022/07/19 04:52:34;;;;;;;15.47;6.50;;;;;;;22.67;42.20;100852.78;5105528;28;20869;-65
2022/07/19 04:55:02;;;;;;;14.97;6.83;;;;;;;22.63;42.28;100849.66;5113672;28;20301;-65
2022/07/19 04:57:30;;;;;;;18.53;5.97;;;;;;;22.66;42.21;100849.25;5113646;28;20237;-65
2022/07/19 04:59:57;;;;;;;20.10;5.83;;;;;;;22.74;42.05;100850.84;5113615;28;20574;-66
2022/07/19 05:02:25;;;;;;;15.20;6.03;;;;;;;22.80;42.32;100842.72;5113532;28;20298;-65
2022/07/19 05:04:54;;;;;;;12.90;4.43;;;;;;;22.86;41.91;100841.03;5099170;28;20260;-64
2022/07/19 05:07:22;;;;;;;11.70;4.70;;;;;;;22.91;42.22;100837.66;5113980;28;20210;-65
2022/07/19 05:09:50;;;;;;;18.17;5.10;;;;;;;22.94;42.37;100837.22;5099518;28;20564;-64
2022/07/19 05:12:24;;;;;;;12.87;4.77;;;;;;;22.97;42.24;100842.19;5099563;28;20202;-64
2022/07/19 05:14:51;;;;;;;9.33;4.23;;;;;;;22.93;42.36;100836.41;5111721;28;20678;-64
2022/07/19 05:17:19;;;;;;;16.90;3.53;;;;;;;22.99;42.32;100835.50;5113663;28;20678;-64
2022/07/19 05:19:47;;;;;;;12.37;4.90;;;;;;;23.06;42.04;100843.56;5105873;28;20564;-64
2022/07/19 05:22:16;;;;;;;14.87;5.50;;;;;;;23.13;42.55;100847.06;5112598;28;20668;-64
2022/07/19 05:24:43;;;;;;;9.43;4.67;;;;;;;23.15;42.54;100843.06;5113536;28;20285;-64
2022/07/19 05:27:11;;;;;;;11.77;4.10;;;;;;;23.19;42.56;100838.88;5112910;28;20210;-65
2022/07/19 05:29:39;;;;;;;9.67;3.63;;;;;;;23.24;42.43;100840.91;5113064;28;20226;-65
2022/07/19 05:32:07;;;;;;;8.77;3.93;;;;;;;23.28;42.66;100842.13;5112887;28;20262;-64
2022/07/19 05:34:34;;;;;;;8.50;3.20;;;;;;;23.35;42.32;100833.94;5113062;28;20210;-64
2022/07/19 05:37:02;;;;;;;10.17;4.00;;;;;;;23.43;42.19;100834.47;5112774;28;20305;-64
2022/07/19 05:39:31;;;;;;;10.90;3.80;;;;;;;23.44;41.96;100825.31;5098566;28;20289;-64
2022/07/19 05:41:59;;;;;;;11.93;3.63;;;;;;;23.47;42.30;100838.41;5112922;28;20210;-65
2022/07/19 05:44:27;;;;;;;7.63;3.97;;;;;;;23.51;42.15;100833.38;5112064;28;20770;-65
2022/07/19 05:46:55;;;;;;;16.30;4.77;;;;;;;23.57;41.71;100843.34;5112172;28;20253;-65
2022/07/19 05:49:22;;;;;;;14.97;4.30;;;;;;;23.60;41.73;100843.69;5109285;28;20229;-65
2022/07/19 05:51:50;;;;;;;10.53;3.90;;;;;;;23.65;41.75;100839.50;5109945;28;20208;-65
2022/07/19 05:54:18;;;;;;;10.50;4.60;;;;;;;23.71;41.71;100838.59;5111790;28;20212;-69
2022/07/19 05:56:47;;;;;;;15.47;4.73;;;;;;;23.76;41.77;100841.44;5112312;28;20212;-65
2022/07/19 05:59:15;;;;;;;8.77;3.53;;;;;;;23.78;41.73;100840.19;5113041;28;20209;-64
2022/07/19 06:01:43;;;;;;;10.30;4.00;;;;;;;23.83;41.35;100842.22;5112283;28;20298;-64
2022/07/19 06:04:11;;;;;;;11.65;3.75;;;;;;;23.87;41.71;100840.69;5111849;28;20201;-64
2022/07/19 06:06:39;;;;;;;12.20;3.97;;;;;;;23.92;41.64;100841.66;5111202;28;20615;-64
2022/07/19 06:09:07;;;;;;;9.15;4.13;;;;;;;24.01;41.55;100853.06;5111928;28;20317;-63
2022/07/19 06:11:36;;;;;;;11.52;4.70;;;;;;;24.05;41.62;100851.53;5109402;28;20224;-64
2022/07/19 06:14:08;;;;;;;9.90;4.28;;;;;;;24.13;41.72;100848.50;5111706;28;20237;-65
2022/07/19 06:16:38;;;;;;;10.30;3.95;;;;;;;24.17;41.04;100855.13;5110326;28;20202;-64
2022/07/19 06:19:06;;;;;;;11.40;4.47;;;;;;;24.20;41.54;100854.66;5108720;28;20229;-65
2022/07/19 06:21:34;;;;;;;17.70;4.38;;;;;;;24.26;41.44;100844.84;5104473;28;20277;-65
2022/07/19 06:24:03;;;;;;;20.50;4.47;;;;;;;24.34;41.45;100850.78;5111422;28;20209;-65
2022/07/19 06:26:30;;;;;;;12.40;4.57;;;;;;;24.37;41.46;100850.28;5112074;28;20213;-65
2022/07/19 06:28:58;;;;;;;20.25;5.50;;;;;;;24.44;41.39;100850.22;5112003;28;20260;-65
2022/07/19 06:31:27;;;;;;;12.75;5.88;;;;;;;24.49;41.11;100854.94;5112009;28;20649;-65
2022/07/19 06:33:55;;;;;;;15.90;5.78;;;;;;;24.55;40.76;100846.69;5110272;28;20230;-65
2022/07/19 06:36:23;;;;;;;14.48;7.25;;;;;;;24.60;40.55;100846.84;5112140;28;20301;-65
2022/07/19 06:38:51;;;;;;;17.85;6.75;;;;;;;24.67;40.66;100855.72;5111937;28;20210;-65
2022/07/19 06:41:19;;;;;;;22.35;7.70;;;;;;;24.73;40.54;100853.94;5111672;28;20297;-65
2022/07/19 06:43:47;;;;;;;24.02;9.00;;;;;;;24.78;40.44;100866.81;5111326;28;20680;-65
2022/07/19 06:46:14;;;;;;;28.50;8.18;;;;;;;24.82;40.53;100863.41;5111406;28;20208;-65
2022/07/19 06:48:44;;;;;;;27.15;8.73;;;;;;;24.89;40.43;100856.00;5111520;28;20209;-65
2022/07/19 06:51:11;;;;;;;24.45;8.82;;;;;;;24.93;40.46;100859.09;5096916;28;20703;-65
2022/07/19 06:53:39;;;;;;;15.80;8.05;;;;;;;24.99;40.35;100858.16;5110956;28;20293;-65
2022/07/19 06:56:08;;;;;;;17.15;7.00;;;;;;;25.04;40.33;100856.44;5111301;28;20297;-65
2022/07/19 06:58:36;;;;;;;21.98;7.22;;;;;;;25.10;40.45;100860.91;5110269;28;20328;-65
2022/07/19 07:01:09;;;;;;;16.63;6.97;;;;;;;25.16;40.29;100858.28;5111270;28;20209;-65
2022/07/19 07:03:37;;;;;;;25.88;6.80;;;;;;;25.21;40.22;100861.16;5110619;28;20210;-65
2022/07/19 07:06:06;;;;;;;21.27;6.63;;;;;;;25.28;40.05;100859.16;5106743;28;20230;-65
2022/07/19 07:08:34;;;;;;;17.30;6.22;;;;;;;25.33;39.96;100856.56;5110819;28;20241;-65
2022/07/19 07:11:02;;;;;;;15.30;5.70;;;;;;;25.39;40.23;100858.34;5110984;28;20222;-65
2022/07/19 07:13:30;;;;;;;17.45;6.07;;;;;;;25.44;39.90;100850.28;5107919;28;20302;-65
2022/07/19 07:15:58;;;;;;;16.23;5.80;;;;;;;25.51;39.99;100852.91;5110521;28;20251;-65
2022/07/19 07:18:25;;;;;;;15.88;6.35;;;;;;;25.56;39.83;100858.44;5110968;28;20206;-64
2022/07/19 07:20:53;;;;;;;16.45;5.07;;;;;;;25.63;39.82;100853.75;5099824;28;20598;-64
2022/07/19 07:23:24;;;;;;;16.45;4.47;;;;;;;25.68;39.52;100862.00;5105692;28;20205;-65
2022/07/19 07:25:53;;;;;;;10.93;4.07;;;;;;;25.74;39.43;100851.03;5108723;28;20240;-65
2022/07/19 07:28:21;;;;;;;14.02;4.47;;;;;;;25.79;39.58;100850.28;5111415;28;20214;-64
2022/07/19 07:30:53;;;;;;;13.20;4.88;;;;;;;25.83;39.47;100852.31;5110125;28;20660;-65
2022/07/19 07:33:21;;;;;;;13.85;4.95;;;;;;;25.88;39.14;100848.84;5110014;28;20221;-65
2022/07/19 07:35:48;;;;;;;14.95;5.30;;;;;;;25.96;38.80;100851.19;5110253;28;20293;-64
2022/07/19 07:38:16;;;;;;;13.13;5.30;;;;;;;26.02;38.53;100852.97;5110627;28;20245;-65
2022/07/19 07:40:46;;;;;;;19.27;5.78;;;;;;;26.11;38.48;100845.25;5110642;28;20229;-66
2022/07/19 07:43:14;;;;;;;18.23;5.93;;;;;;;26.21;37.96;100840.84;5110042;28;20210;-65
2022/07/19 07:45:42;;;;;;;16.60;5.88;;;;;;;26.25;37.99;100846.63;5110604;28;20216;-65
2022/07/19 07:48:10;;;;;;;16.23;5.88;;;;;;;26.29;37.76;100845.13;5110763;28;20271;-66
2022/07/19 07:50:38;;;;;;;15.43;5.25;;;;;;;26.34;37.49;100845.19;5100715;28;20233;-65
2022/07/19 07:53:06;;;;;;;14.88;6.32;;;;;;;26.41;37.38;100847.75;5106227;28;20210;-64
2022/07/19 07:55:38;;;;;;;17.95;6.65;;;;;;;26.52;36.78;100844.19;5110871;28;20815;-64
2022/07/19 07:58:09;;;;;;;21.98;5.80;;;;;;;26.57;36.34;100853.25;5110576;28;20704;-65
2022/07/19 08:00:37;;;;;;;18.70;5.82;;;;;;;26.67;35.85;100854.50;5107276;28;20209;-65
2022/07/19 08:03:07;;;;;;;17.45;6.47;;;;;;;26.76;35.44;100853.03;5109418;28;20213;-65
2022/07/19 08:05:35;;;;;;;12.52;5.65;;;;;;;26.82;35.11;100852.06;5110571;28;20210;-65
2022/07/19 08:08:03;;;;;;;17.38;5.57;;;;;;;26.89;35.01;100850.00;5110420;28;20217;-64
2022/07/19 08:10:35;;;;;;;16.38;6.25;;;;;;;27.04;34.53;100844.84;5112596;28;20230;-65
2022/07/19 08:13:03;;;;;;;18.58;5.65;;;;;;;27.07;34.72;100833.47;5110342;28;20338;-65
2022/07/19 08:15:37;;;;;;;18.50;5.20;;;;;;;27.16;34.87;100826.53;5114299;28;20209;-65
2022/07/19 08:18:05;;;;;;;16.02;5.15;;;;;;;27.24;34.28;100826.09;5114212;28;20311;-64
2022/07/19 08:20:33;;;;;;;15.32;5.88;;;;;;;27.36;34.58;100831.44;5103136;28;20202;-64
2022/07/19 08:23:01;;;;;;;18.20;6.20;;;;;;;27.46;34.32;100828.03;5114095;28;20597;-65
2022/07/19 08:25:29;;;;;;;18.23;6.03;;;;;;;27.54;34.33;100819.47;5114841;28;20319;-65
2022/07/19 08:27:56;;;;;;;14.88;6.55;;;;;;;27.63;34.51;100815.22;5114499;28;20242;-65
2022/07/19 08:30:24;;;;;;;17.73;7.10;;;;;;;27.75;34.67;100821.41;5113971;28;20704;-66
2022/07/19 08:33:13;;;;;;;18.42;7.18;;;;;;;27.88;34.65;100815.56;5113062;28;20232;-65
2022/07/19 08:35:42;;;;;;;14.38;7.63;;;;;;;27.99;35.11;100811.88;5114247;28;20727;-65
2022/07/19 08:38:10;;;;;;;17.15;7.45;;;;;;;28.12;34.61;100813.41;5114233;28;20295;-65
2022/07/19 08:40:42;;;;;;;17.40;7.15;;;;;;;28.30;33.98;100815.00;5114266;28;20217;-65
2022/07/19 08:43:11;;;;;;;16.60;7.60;;;;;;;28.40;34.05;100806.91;5113817;28;20205;-65
2022/07/19 08:45:41;;;;;;;16.92;6.65;;;;;;;28.44;34.55;100810.75;5113898;28;20293;-67
2022/07/19 08:48:08;;;;;;;30.30;7.30;;;;;;;28.53;34.26;100809.22;5114416;28;20667;-66
2022/07/19 08:50:40;;;;;;;16.27;5.50;;;;;;;28.66;34.13;100810.69;5103843;28;20572;-65
2022/07/19 08:53:08;;;;;;;21.75;6.85;;;;;;;28.76;34.09;100811.63;5109496;28;20296;-65
2022/07/19 08:55:36;;;;;;;13.65;5.28;;;;;;;28.88;33.62;100813.34;5113742;28;20364;-65
2022/07/19 08:58:03;;;;;;;17.02;5.53;;;;;;;28.92;33.14;100812.59;5113367;28;20651;-64
2022/07/19 09:00:33;;;;;;;13.57;5.38;;;;;;;29.05;33.21;100797.66;5113779;28;20210;-65
2022/07/19 09:03:03;;;;;;;13.35;4.28;;;;;;;29.13;33.09;100800.72;5112858;28;20205;-65
2022/07/19 09:05:33;;;;;;;6.53;3.90;;;;;;;29.29;33.46;100801.63;5111334;28;20209;-64
2022/07/19 09:08:10;;;;;;;14.85;4.82;;;;;;;29.36;33.21;100796.81;5113731;28;20242;-64
2022/07/19 09:10:40;;;;;;;9.40;5.13;;;;;;;29.54;32.54;100806.47;5100045;28;20225;-65
2022/07/19 09:13:11;;;;;;;11.30;3.38;;;;;;;29.69;32.03;100789.31;5113169;28;20317;-64
2022/07/19 09:15:46;;;;;;;7.10;3.78;;;;;;;29.77;31.59;100792.38;5113674;28;20210;-67
2022/07/19 09:18:18;;;;;;;8.18;3.67;;;;;;;29.84;31.67;100792.09;5113588;28;20240;-65
2022/07/19 09:20:48;;;;;;;8.15;3.60;;;;;;;30.01;30.77;100784.53;5109266;28;20687;-66
2022/07/19 09:23:17;;;;;;;7.22;3.30;;;;;;;30.12;30.90;100790.88;5112973;28;20208;-64
2022/07/19 09:25:48;;;;;;;7.50;3.00;;;;;;;30.17;29.97;100790.91;5113300;28;20202;-66
2022/07/19 09:28:17;;;;;;;10.20;3.17;;;;;;;30.32;29.66;100787.34;5112876;28;20285;-65
2022/07/19 09:30:47;;;;;;;4.88;3.63;;;;;;;30.43;30.24;100789.84;5112862;28;20713;-65
2022/07/19 09:33:16;;;;;;;7.22;3.30;;;;;;;30.58;30.19;100789.06;5112760;28;20241;-65
2022/07/19 09:35:47;;;;;;;9.25;3.75;;;;;;;30.74;29.71;100784.41;5108346;28;20289;-65
2022/07/19 09:38:18;;;;;;;7.22;3.05;;;;;;;30.85;29.47;100784.13;5106307;28;20296;-64
2022/07/19 09:40:47;;;;;;;7.00;3.70;;;;;;;30.89;30.01;100787.94;5113072;28;20239;-66
2022/07/19 09:43:15;;;;;;;7.40;3.60;;;;;;;30.97;29.51;100776.44;5112402;28;20297;-64
2022/07/19 09:46:02;;;;;;;10.93;3.80;;;;;;;31.18;28.87;100785.47;5112753;28;20202;-64
2022/07/19 09:48:43;;;;;;;14.82;3.97;;;;;;;31.29;28.56;100775.31;5112919;28;20301;-64
2022/07/19 09:51:12;;;;;;;7.45;3.30;;;;;;;31.40;28.46;100780.47;5098147;28;20222;-66
2022/07/19 09:53:41;;;;;;;7.72;3.13;;;;;;;31.80;27.68;100772.41;5111905;28;20297;-66
2022/07/19 09:56:11;;;;;;;9.82;3.40;;;;;;;31.93;27.92;100769.88;5112603;28;20683;-66
2022/07/19 09:58:40;;;;;;;10.20;3.33;;;;;;;32.00;27.25;100764.91;5101716;28;20690;-66
2022/07/19 10:01:09;;;;;;;12.85;2.70;;;;;;;32.24;26.26;100759.56;5096058;28;20835;-65
2022/07/19 10:03:36;;;;;;;4.88;2.58;;;;;;;32.26;27.28;100762.03;5111384;28;20293;-65
2022/07/19 10:06:05;;;;;;;8.05;2.92;;;;;;;32.23;27.62;100757.94;5112629;28;20241;-65
2022/07/19 10:08:32;;;;;;;6.65;2.80;;;;;;;32.17;27.40;100752.78;5112229;28;20249;-64
2022/07/19 10:11:01;;;;;;;8.15;3.08;;;;;;;32.20;27.94;100746.69;5112486;28;20594;-65
2022/07/19 10:13:30;;;;;;;4.93;3.00;;;;;;;32.28;27.74;100748.88;5110214;28;20293;-66
2022/07/19 10:16:00;;;;;;;9.57;3.60;;;;;;;32.47;27.24;100750.59;5110863;28;20214;-65
2022/07/19 10:18:46;;;;;;;13.05;3.78;;;;;;;32.59;26.71;100741.19;5112392;28;20201;-65
2022/07/19 10:21:15;;;;;;;6.47;2.80;;;;;;;32.74;26.54;100741.06;5101988;28;20622;-65
2022/07/19 10:23:51;;;;;;;10.48;2.70;;;;;;;32.84;26.38;100730.00;5111413;28;20202;-66
2022/07/19 10:29:16;;;;;;;7.53;3.53;;;;;;;32.97;26.97;100729.34;5087317;27;21088;-65
2022/07/19 10:32:03;;;;;;;8.60;2.95;;;;;;;33.00;26.94;100717.75;5077955;28;20302;-65
2022/07/19 10:34:31;;;;;;;6.72;3.70;;;;;;;33.10;26.30;100712.16;5062497;28;20209;-65
2022/07/19 10:36:59;;;;;;;6.10;2.95;;;;;;;33.22;26.52;100709.84;5077596;28;20302;-65
2022/07/19 10:39:31;;;;;;;13.20;4.05;;;;;;;33.30;25.91;100710.31;5087588;28;20234;-65
2022/07/19 10:42:17;;;;;;;9.25;3.30;;;;;;;33.35;26.02;100710.22;5086818;28;20683;-65
2022/07/19 10:45:13;;;;;;;7.28;3.78;;;;;;;33.44;26.19;100713.97;5087405;28;20203;-65
2022/07/19 10:48:09;;;;;;;5.30;3.22;;;;;;;33.54;25.34;100703.66;5072866;28;20222;-65
2022/07/19 10:50:49;;;;;;;8.65;2.83;;;;;;;33.85;24.84;100698.59;5083724;28;20225;-65
2022/07/19 10:53:59;;;;;;;10.27;3.05;;;;;;;33.90;25.60;100692.19;5072509;28;20213;-65
2022/07/19 10:56:56;;;;;;;13.95;5.60;;;;;;;33.91;24.87;100689.16;5058065;28;20217;-66
2022/07/19 10:59:37;;;;;;;7.90;3.35;;;;;;;34.52;22.91;100684.59;5025967;28;20573;-65
2022/07/19 11:02:07;;;;;;;7.38;2.90;;;;;;;34.63;22.32;100688.81;5072684;28;20202;-65
2022/07/19 11:04:56;;;;;;;7.80;2.70;;;;;;;34.83;22.25;100679.41;5087069;28;20217;-65
2022/07/19 11:07:24;;;;;;;10.23;3.13;;;;;;;34.95;22.31;100679.69;5076213;28;20241;-63
2022/07/19 11:09:55;;;;;;;5.90;2.95;;;;;;;34.94;22.66;100675.31;5086742;28;20210;-65
2022/07/19 11:12:34;;;;;;;10.50;3.10;;;;;;;34.93;22.71;100668.97;5085960;28;20563;-65
2022/07/19 11:15:08;;;;;;;7.95;2.30;;;;;;;34.98;22.57;100663.38;5075945;28;20341;-65
2022/07/19 11:17:56;;;;;;;7.65;2.35;;;;;;;35.18;22.41;100667.66;5078428;28;20198;-65
2022/07/19 11:20:26;;;;;;;6.85;2.70;;;;;;;35.25;22.60;100657.06;5074451;28;20290;-65
2022/07/19 11:22:56;;;;;;;9.60;3.17;;;;;;;35.53;21.14;100643.25;5065456;28;20237;-65
2022/07/19 11:25:26;;;;;;;11.25;3.58;;;;;;;35.74;21.54;100655.44;5082794;28;20603;-65
2022/07/19 11:27:55;;;;;;;7.05;2.42;;;;;;;35.62;21.41;100650.47;5086268;28;20243;-65
2022/07/19 11:30:24;;;;;;;6.93;2.10;;;;;;;35.65;22.03;100647.06;5086473;28;20260;-66
2022/07/19 11:32:55;;;;;;;4.57;2.28;;;;;;;35.78;21.56;100637.97;5083439;28;20731;-65